sensor_id;sensor_type;location;lat;lon;timestamp;P1;durP1;ratioP1;P2;durP2;ratioP2
51814;SDS011;37874;53.158;6.766;2022-08-19T00:27:36;1.10;;;0.90;;
51814;SDS011;37874;53.158;6.766;2022-08-19T00:30:03;1.50;;;1.13;;
51814;SDS011;37874;53.158;6.766;2022-08-19T00:32:31;1.45;;;1.05;;
51814;SDS011;37874;53.158;6.766;2022-08-19T00:34:57;1.00;;;0.70;;
51814;SDS011;37874;53.158;6.766;2022-08-19T00:37:24;1.55;;;1.10;;
51814;SDS011;37874;53.158;6.766;2022-08-19T00:39:51;1.10;;;0.90;;
51814;SDS011;37874;53.158;6.766;2022-08-19T00:42:17;1.50;;;1.00;;
51814;SDS011;37874;53.158;6.766;2022-08-19T00:44:44;1.33;;;1.02;;
51814;SDS011;37874;53.158;6.766;2022-08-19T00:47:09;1.45;;;1.05;;
51814;SDS011;37874;53.158;6.766;2022-08-19T00:49:52;1.88;;;1.30;;
51814;SDS011;37874;53.158;6.766;2022-08-19T00:52:27;2.65;;;1.00;;
51814;SDS011;37874;53.158;6.766;2022-08-19T00:54:58;2.40;;;0.90;;
51814;SDS011;37874;53.158;6.766;2022-08-19T00:57:27;1.40;;;0.80;;
51814;SDS011;37874;53.158;6.766;2022-08-19T00:59:56;1.48;;;1.10;;
51814;SDS011;37874;53.158;6.766;2022-08-19T01:02:23;2.33;;;1.00;;
51814;SDS011;37874;53.158;6.766;2022-08-19T01:04:49;1.00;;;0.80;;
51814;SDS011;37874;53.158;6.766;2022-08-19T01:07:15;1.13;;;0.85;;
51814;SDS011;37874;53.158;6.766;2022-08-19T01:09:41;1.23;;;0.82;;
51814;SDS011;37874;53.158;6.766;2022-08-19T01:12:07;1.25;;;0.90;;
51814;SDS011;37874;53.158;6.766;2022-08-19T01:14:33;1.20;;;0.95;;
51814;SDS011;37874;53.158;6.766;2022-08-19T01:17:01;1.05;;;0.90;;
51814;SDS011;37874;53.158;6.766;2022-08-19T01:19:28;1.00;;;0.70;;
51814;SDS011;37874;53.158;6.766;2022-08-19T01:22:03;1.15;;;0.88;;
51814;SDS011;37874;53.158;6.766;2022-08-19T01:24:33;1.10;;;0.80;;
51814;SDS011;37874;53.158;6.766;2022-08-19T01:26:59;1.15;;;0.70;;
51814;SDS011;37874;53.158;6.766;2022-08-19T01:29:29;1.10;;;0.80;;
51814;SDS011;37874;53.158;6.766;2022-08-19T01:31:55;1.08;;;0.77;;
51814;SDS011;37874;53.158;6.766;2022-08-19T01:34:21;1.00;;;0.80;;
51814;SDS011;37874;53.158;6.766;2022-08-19T01:36:47;1.15;;;0.90;;
51814;SDS011;37874;53.158;6.766;2022-08-19T01:39:15;1.17;;;0.80;;
51814;SDS011;37874;53.158;6.766;2022-08-19T01:41:44;0.95;;;0.80;;
51814;SDS011;37874;53.158;6.766;2022-08-19T01:44:10;0.80;;;0.60;;
51814;SDS011;37874;53.158;6.766;2022-08-19T01:46:36;1.45;;;0.95;;
51814;SDS011;37874;53.158;6.766;2022-08-19T01:49:02;0.90;;;0.70;;
51814;SDS011;37874;53.158;6.766;2022-08-19T01:51:30;1.02;;;0.80;;
51814;SDS011;37874;53.158;6.766;2022-08-19T01:53:56;1.40;;;1.10;;
51814;SDS011;37874;53.158;6.766;2022-08-19T01:56:24;0.85;;;0.70;;
51814;SDS011;37874;53.158;6.766;2022-08-19T01:58:54;1.40;;;0.95;;
51814;SDS011;37874;53.158;6.766;2022-08-19T02:01:23;1.30;;;0.90;;
51814;SDS011;37874;53.158;6.766;2022-08-19T02:03:48;1.20;;;0.90;;
51814;SDS011;37874;53.158;6.766;2022-08-19T02:06:14;0.98;;;0.60;;
51814;SDS011;37874;53.158;6.766;2022-08-19T02:08:42;1.02;;;0.70;;
51814;SDS011;37874;53.158;6.766;2022-08-19T02:11:17;1.08;;;0.80;;
51814;SDS011;37874;53.158;6.766;2022-08-19T02:13:45;1.13;;;0.80;;
51814;SDS011;37874;53.158;6.766;2022-08-19T02:16:10;1.15;;;0.82;;
51814;SDS011;37874;53.158;6.766;2022-08-19T02:18:36;0.95;;;0.65;;
51814;SDS011;37874;53.158;6.766;2022-08-19T02:21:01;0.90;;;0.70;;
51814;SDS011;37874;53.158;6.766;2022-08-19T02:23:27;1.00;;;0.70;;
51814;SDS011;37874;53.158;6.766;2022-08-19T02:25:53;0.98;;;0.70;;
51814;SDS011;37874;53.158;6.766;2022-08-19T02:28:19;1.02;;;0.70;;
51814;SDS011;37874;53.158;6.766;2022-08-19T02:30:45;0.98;;;0.70;;
51814;SDS011;37874;53.158;6.766;2022-08-19T02:33:12;0.80;;;0.60;;
51814;SDS011;37874;53.158;6.766;2022-08-19T02:35:40;0.40;;;0.35;;
51814;SDS011;37874;53.158;6.766;2022-08-19T02:38:07;0.70;;;0.50;;
51814;SDS011;37874;53.158;6.766;2022-08-19T02:40:56;0.47;;;0.40;;
51814;SDS011;37874;53.158;6.766;2022-08-19T02:43:24;0.90;;;0.60;;
51814;SDS011;37874;53.158;6.766;2022-08-19T02:45:51;0.65;;;0.50;;
51814;SDS011;37874;53.158;6.766;2022-08-19T02:48:17;0.90;;;0.55;;
51814;SDS011;37874;53.158;6.766;2022-08-19T02:50:45;0.80;;;0.60;;
51814;SDS011;37874;53.158;6.766;2022-08-19T02:53:11;0.65;;;0.50;;
51814;SDS011;37874;53.158;6.766;2022-08-19T02:55:44;0.82;;;0.60;;
51814;SDS011;37874;53.158;6.766;2022-08-19T02:58:11;1.10;;;0.77;;
51814;SDS011;37874;53.158;6.766;2022-08-19T03:00:51;1.00;;;0.75;;
51814;SDS011;37874;53.158;6.766;2022-08-19T03:03:19;1.02;;;0.68;;
51814;SDS011;37874;53.158;6.766;2022-08-19T03:05:45;1.00;;;0.60;;
51814;SDS011;37874;53.158;6.766;2022-08-19T03:08:11;0.75;;;0.57;;
51814;SDS011;37874;53.158;6.766;2022-08-19T03:10:42;1.05;;;0.70;;
51814;SDS011;37874;53.158;6.766;2022-08-19T03:13:15;0.90;;;0.70;;
51814;SDS011;37874;53.158;6.766;2022-08-19T03:15:43;0.80;;;0.55;;
51814;SDS011;37874;53.158;6.766;2022-08-19T03:18:11;0.80;;;0.60;;
51814;SDS011;37874;53.158;6.766;2022-08-19T03:20:43;1.00;;;0.70;;
51814;SDS011;37874;53.158;6.766;2022-08-19T03:23:19;1.10;;;0.80;;
51814;SDS011;37874;53.158;6.766;2022-08-19T03:25:46;0.73;;;0.50;;
51814;SDS011;37874;53.158;6.766;2022-08-19T03:28:14;1.00;;;0.70;;
51814;SDS011;37874;53.158;6.766;2022-08-19T03:30:41;1.00;;;0.70;;
51814;SDS011;37874;53.158;6.766;2022-08-19T03:33:08;0.93;;;0.60;;
51814;SDS011;37874;53.158;6.766;2022-08-19T03:35:37;1.17;;;0.90;;
51814;SDS011;37874;53.158;6.766;2022-08-19T03:38:03;1.13;;;0.73;;
51814;SDS011;37874;53.158;6.766;2022-08-19T03:40:32;0.60;;;0.50;;
51814;SDS011;37874;53.158;6.766;2022-08-19T03:43:01;1.17;;;0.77;;
51814;SDS011;37874;53.158;6.766;2022-08-19T03:45:26;1.00;;;0.70;;
51814;SDS011;37874;53.158;6.766;2022-08-19T03:47:52;1.10;;;0.80;;
51814;SDS011;37874;53.158;6.766;2022-08-19T03:50:18;0.98;;;0.60;;
51814;SDS011;37874;53.158;6.766;2022-08-19T03:52:48;0.63;;;0.50;;
51814;SDS011;37874;53.158;6.766;2022-08-19T03:55:15;0.90;;;0.63;;
51814;SDS011;37874;53.158;6.766;2022-08-19T03:57:41;0.98;;;0.65;;
51814;SDS011;37874;53.158;6.766;2022-08-19T04:00:07;0.82;;;0.55;;
51814;SDS011;37874;53.158;6.766;2022-08-19T04:02:34;0.95;;;0.77;;
51814;SDS011;37874;53.158;6.766;2022-08-19T04:05:00;1.00;;;0.70;;
51814;SDS011;37874;53.158;6.766;2022-08-19T04:07:25;0.90;;;0.60;;
51814;SDS011;37874;53.158;6.766;2022-08-19T04:09:51;1.02;;;0.80;;
51814;SDS011;37874;53.158;6.766;2022-08-19T04:12:17;0.98;;;0.70;;
51814;SDS011;37874;53.158;6.766;2022-08-19T04:14:45;0.90;;;0.60;;
51814;SDS011;37874;53.158;6.766;2022-08-19T04:17:11;0.73;;;0.60;;
51814;SDS011;37874;53.158;6.766;2022-08-19T04:19:39;1.00;;;0.70;;
51814;SDS011;37874;53.158;6.766;2022-08-19T04:22:05;0.90;;;0.60;;
51814;SDS011;37874;53.158;6.766;2022-08-19T04:24:31;1.05;;;0.70;;
51814;SDS011;37874;53.158;6.766;2022-08-19T04:26:59;1.10;;;0.70;;
51814;SDS011;37874;53.158;6.766;2022-08-19T04:29:25;0.70;;;0.50;;
51814;SDS011;37874;53.158;6.766;2022-08-19T04:31:52;0.80;;;0.50;;
51814;SDS011;37874;53.158;6.766;2022-08-19T04:34:20;0.75;;;0.43;;
51814;SDS011;37874;53.158;6.766;2022-08-19T04:36:47;0.88;;;0.60;;
51814;SDS011;37874;53.158;6.766;2022-08-19T04:39:16;1.02;;;0.40;;
51814;SDS011;37874;53.158;6.766;2022-08-19T04:41:44;0.90;;;0.60;;
51814;SDS011;37874;53.158;6.766;2022-08-19T04:44:32;1.15;;;0.60;;
51814;SDS011;37874;53.158;6.766;2022-08-19T04:47:00;0.90;;;0.63;;
51814;SDS011;37874;53.158;6.766;2022-08-19T04:49:26;0.70;;;0.50;;
51814;SDS011;37874;53.158;6.766;2022-08-19T04:51:52;0.70;;;0.55;;
51814;SDS011;37874;53.158;6.766;2022-08-19T04:54:19;0.70;;;0.50;;
51814;SDS011;37874;53.158;6.766;2022-08-19T04:56:48;0.60;;;0.40;;
51814;SDS011;37874;53.158;6.766;2022-08-19T04:59:15;0.85;;;0.60;;
51814;SDS011;37874;53.158;6.766;2022-08-19T05:01:43;1.00;;;0.60;;
51814;SDS011;37874;53.158;6.766;2022-08-19T05:04:13;0.68;;;0.50;;
51814;SDS011;37874;53.158;6.766;2022-08-19T05:06:39;0.80;;;0.60;;
51814;SDS011;37874;53.158;6.766;2022-08-19T05:09:04;0.90;;;0.60;;
51814;SDS011;37874;53.158;6.766;2022-08-19T05:11:34;0.75;;;0.60;;
51814;SDS011;37874;53.158;6.766;2022-08-19T05:14:03;1.50;;;1.00;;
51814;SDS011;37874;53.158;6.766;2022-08-19T05:16:29;1.00;;;0.70;;
51814;SDS011;37874;53.158;6.766;2022-08-19T05:18:55;1.02;;;0.70;;
51814;SDS011;37874;53.158;6.766;2022-08-19T05:21:40;0.90;;;0.70;;
51814;SDS011;37874;53.158;6.766;2022-08-19T05:24:25;1.10;;;0.80;;
51814;SDS011;37874;53.158;6.766;2022-08-19T05:26:52;1.40;;;1.02;;
51814;SDS011;37874;53.158;6.766;2022-08-19T05:29:22;1.40;;;1.00;;
51814;SDS011;37874;53.158;6.766;2022-08-19T05:31:50;1.25;;;0.90;;
51814;SDS011;37874;53.158;6.766;2022-08-19T05:34:16;1.10;;;0.85;;
51814;SDS011;37874;53.158;6.766;2022-08-19T05:36:45;1.58;;;1.10;;
51814;SDS011;37874;53.158;6.766;2022-08-19T05:39:12;1.30;;;0.90;;
51814;SDS011;37874;53.158;6.766;2022-08-19T05:41:44;1.20;;;1.00;;
51814;SDS011;37874;53.158;6.766;2022-08-19T05:44:12;1.42;;;1.10;;
51814;SDS011;37874;53.158;6.766;2022-08-19T05:46:39;1.30;;;1.00;;
51814;SDS011;37874;53.158;6.766;2022-08-19T05:49:05;1.20;;;0.90;;
51814;SDS011;37874;53.158;6.766;2022-08-19T05:51:32;1.60;;;1.10;;
51814;SDS011;37874;53.158;6.766;2022-08-19T05:54:03;1.65;;;1.17;;
51814;SDS011;37874;53.158;6.766;2022-08-19T05:56:32;1.50;;;1.10;;
51814;SDS011;37874;53.158;6.766;2022-08-19T05:58:59;1.80;;;1.40;;
51814;SDS011;37874;53.158;6.766;2022-08-19T06:01:26;2.00;;;1.58;;
51814;SDS011;37874;53.158;6.766;2022-08-19T06:03:51;1.92;;;1.52;;
51814;SDS011;37874;53.158;6.766;2022-08-19T06:06:17;2.00;;;1.50;;
51814;SDS011;37874;53.158;6.766;2022-08-19T06:08:43;3.95;;;1.50;;
51814;SDS011;37874;53.158;6.766;2022-08-19T06:11:30;1.77;;;1.25;;
51814;SDS011;37874;53.158;6.766;2022-08-19T06:14:00;2.00;;;1.48;;
51814;SDS011;37874;53.158;6.766;2022-08-19T06:16:34;1.90;;;1.40;;
51814;SDS011;37874;53.158;6.766;2022-08-19T06:19:03;1.92;;;1.50;;
51814;SDS011;37874;53.158;6.766;2022-08-19T06:21:32;2.03;;;1.52;;
51814;SDS011;37874;53.158;6.766;2022-08-19T06:23:58;2.10;;;1.70;;
51814;SDS011;37874;53.158;6.766;2022-08-19T06:26:25;2.08;;;1.52;;
51814;SDS011;37874;53.158;6.766;2022-08-19T06:28:51;1.88;;;1.58;;
51814;SDS011;37874;53.158;6.766;2022-08-19T06:31:18;2.80;;;2.10;;
51814;SDS011;37874;53.158;6.766;2022-08-19T06:33:46;2.03;;;1.60;;
51814;SDS011;37874;53.158;6.766;2022-08-19T06:36:24;2.00;;;1.40;;
51814;SDS011;37874;53.158;6.766;2022-08-19T06:39:04;2.30;;;1.50;;
51814;SDS011;37874;53.158;6.766;2022-08-19T06:41:34;1.90;;;1.50;;
51814;SDS011;37874;53.158;6.766;2022-08-19T06:44:01;1.58;;;1.25;;
51814;SDS011;37874;53.158;6.766;2022-08-19T06:46:27;2.15;;;1.80;;
51814;SDS011;37874;53.158;6.766;2022-08-19T06:48:53;2.08;;;1.65;;
51814;SDS011;37874;53.158;6.766;2022-08-19T06:51:20;2.42;;;2.00;;
51814;SDS011;37874;53.158;6.766;2022-08-19T06:53:50;2.80;;;2.22;;
51814;SDS011;37874;53.158;6.766;2022-08-19T06:56:18;1.98;;;1.63;;
51814;SDS011;37874;53.158;6.766;2022-08-19T06:58:46;2.20;;;1.80;;
51814;SDS011;37874;53.158;6.766;2022-08-19T07:01:16;2.25;;;1.88;;
51814;SDS011;37874;53.158;6.766;2022-08-19T07:03:42;2.58;;;1.92;;
51814;SDS011;37874;53.158;6.766;2022-08-19T07:06:09;2.45;;;2.03;;
51814;SDS011;37874;53.158;6.766;2022-08-19T07:08:37;2.50;;;2.10;;
51814;SDS011;37874;53.158;6.766;2022-08-19T07:11:09;2.47;;;2.00;;
51814;SDS011;37874;53.158;6.766;2022-08-19T07:13:38;2.08;;;1.80;;
51814;SDS011;37874;53.158;6.766;2022-08-19T07:16:08;2.50;;;1.83;;
51814;SDS011;37874;53.158;6.766;2022-08-19T07:18:38;2.30;;;1.98;;
51814;SDS011;37874;53.158;6.766;2022-08-19T07:21:05;2.47;;;1.90;;
51814;SDS011;37874;53.158;6.766;2022-08-19T07:23:33;2.10;;;1.80;;
51814;SDS011;37874;53.158;6.766;2022-08-19T07:26:03;2.47;;;1.90;;
51814;SDS011;37874;53.158;6.766;2022-08-19T07:28:31;2.55;;;2.10;;
51814;SDS011;37874;53.158;6.766;2022-08-19T07:30:56;1.95;;;1.55;;
51814;SDS011;37874;53.158;6.766;2022-08-19T07:33:22;2.88;;;2.20;;
51814;SDS011;37874;53.158;6.766;2022-08-19T07:35:47;2.15;;;1.85;;
51814;SDS011;37874;53.158;6.766;2022-08-19T07:38:15;2.33;;;1.80;;
51814;SDS011;37874;53.158;6.766;2022-08-19T07:40:40;2.70;;;2.13;;
51814;SDS011;37874;53.158;6.766;2022-08-19T07:43:08;2.50;;;2.22;;
51814;SDS011;37874;53.158;6.766;2022-08-19T07:45:34;2.45;;;1.95;;
51814;SDS011;37874;53.158;6.766;2022-08-19T07:47:59;2.17;;;1.83;;
51814;SDS011;37874;53.158;6.766;2022-08-19T07:50:25;2.75;;;2.25;;
51814;SDS011;37874;53.158;6.766;2022-08-19T07:52:51;2.40;;;2.08;;
51814;SDS011;37874;53.158;6.766;2022-08-19T07:55:18;2.65;;;2.28;;
51814;SDS011;37874;53.158;6.766;2022-08-19T07:57:48;2.63;;;2.30;;
51814;SDS011;37874;53.158;6.766;2022-08-19T08:00:14;2.63;;;2.25;;
51814;SDS011;37874;53.158;6.766;2022-08-19T08:02:40;2.70;;;2.28;;
51814;SDS011;37874;53.158;6.766;2022-08-19T08:05:07;2.60;;;2.38;;
51814;SDS011;37874;53.158;6.766;2022-08-19T08:07:52;2.75;;;2.20;;
51814;SDS011;37874;53.158;6.766;2022-08-19T08:10:37;2.90;;;2.50;;
51814;SDS011;37874;53.158;6.766;2022-08-19T08:13:02;3.30;;;2.92;;
51814;SDS011;37874;53.158;6.766;2022-08-19T08:15:30;3.35;;;2.50;;
51814;SDS011;37874;53.158;6.766;2022-08-19T08:17:56;2.72;;;2.42;;
51814;SDS011;37874;53.158;6.766;2022-08-19T08:20:22;2.70;;;2.40;;
51814;SDS011;37874;53.158;6.766;2022-08-19T08:22:48;2.95;;;2.65;;
51814;SDS011;37874;53.158;6.766;2022-08-19T08:25:33;3.25;;;2.95;;
51814;SDS011;37874;53.158;6.766;2022-08-19T08:28:00;3.40;;;2.90;;
51814;SDS011;37874;53.158;6.766;2022-08-19T08:30:28;3.97;;;2.80;;
51814;SDS011;37874;53.158;6.766;2022-08-19T08:32:54;3.78;;;2.55;;
51814;SDS011;37874;53.158;6.766;2022-08-19T08:35:21;3.15;;;2.85;;
51814;SDS011;37874;53.158;6.766;2022-08-19T08:37:49;3.38;;;2.65;;
51814;SDS011;37874;53.158;6.766;2022-08-19T08:40:30;3.00;;;2.70;;
51814;SDS011;37874;53.158;6.766;2022-08-19T08:45:59;3.30;;;2.60;;
51814;SDS011;37874;53.158;6.766;2022-08-19T08:51:42;2.95;;;2.45;;
51814;SDS011;37874;53.158;6.766;2022-08-19T08:54:13;3.30;;;2.90;;
51814;SDS011;37874;53.158;6.766;2022-08-19T08:56:43;3.05;;;2.53;;
51814;SDS011;37874;53.158;6.766;2022-08-19T08:59:12;2.65;;;2.10;;
51814;SDS011;37874;53.158;6.766;2022-08-19T09:01:51;2.95;;;2.40;;
51814;SDS011;37874;53.158;6.766;2022-08-19T09:04:16;2.85;;;2.55;;
51814;SDS011;37874;53.158;6.766;2022-08-19T09:09:30;2.60;;;2.10;;
51814;SDS011;37874;53.158;6.766;2022-08-19T09:12:15;2.38;;;1.90;;
51814;SDS011;37874;53.158;6.766;2022-08-19T09:17:21;2.47;;;2.17;;
51814;SDS011;37874;53.158;6.766;2022-08-19T09:20:34;2.20;;;1.70;;
51814;SDS011;37874;53.158;6.766;2022-08-19T09:22:44;2.17;;;1.73;;
51814;SDS011;37874;53.158;6.766;2022-08-19T09:25:10;2.13;;;1.70;;
51814;SDS011;37874;53.158;6.766;2022-08-19T09:27:38;2.88;;;2.08;;
51814;SDS011;37874;53.158;6.766;2022-08-19T09:30:05;2.10;;;1.58;;
51814;SDS011;37874;53.158;6.766;2022-08-19T09:32:32;2.35;;;1.83;;
51814;SDS011;37874;53.158;6.766;2022-08-19T09:34:58;2.47;;;2.15;;
51814;SDS011;37874;53.158;6.766;2022-08-19T09:37:25;3.03;;;2.15;;
51814;SDS011;37874;53.158;6.766;2022-08-19T09:39:52;2.58;;;1.88;;
51814;SDS011;37874;53.158;6.766;2022-08-19T09:42:18;2.70;;;2.13;;
51814;SDS011;37874;53.158;6.766;2022-08-19T09:44:44;2.35;;;2.03;;
51814;SDS011;37874;53.158;6.766;2022-08-19T09:47:10;2.22;;;1.80;;
51814;SDS011;37874;53.158;6.766;2022-08-19T09:49:37;2.70;;;2.00;;
51814;SDS011;37874;53.158;6.766;2022-08-19T09:52:04;2.20;;;1.83;;
51814;SDS011;37874;53.158;6.766;2022-08-19T09:54:31;2.55;;;2.00;;
51814;SDS011;37874;53.158;6.766;2022-08-19T09:57:00;2.25;;;1.85;;
51814;SDS011;37874;53.158;6.766;2022-08-19T09:59:26;1.92;;;1.55;;
51814;SDS011;37874;53.158;6.766;2022-08-19T10:01:52;3.67;;;2.30;;
51814;SDS011;37874;53.158;6.766;2022-08-19T10:04:18;2.50;;;2.10;;
51814;SDS011;37874;53.158;6.766;2022-08-19T10:06:46;2.30;;;1.85;;
51814;SDS011;37874;53.158;6.766;2022-08-19T10:09:12;2.35;;;1.80;;
51814;SDS011;37874;53.158;6.766;2022-08-19T10:11:40;2.25;;;1.67;;
51814;SDS011;37874;53.158;6.766;2022-08-19T10:14:07;2.55;;;1.95;;
51814;SDS011;37874;53.158;6.766;2022-08-19T10:16:33;3.60;;;1.95;;
51814;SDS011;37874;53.158;6.766;2022-08-19T10:19:00;2.10;;;1.70;;
51814;SDS011;37874;53.158;6.766;2022-08-19T10:21:27;2.85;;;2.45;;
51814;SDS011;37874;53.158;6.766;2022-08-19T10:24:00;2.75;;;2.10;;
51814;SDS011;37874;53.158;6.766;2022-08-19T10:26:30;2.45;;;2.13;;
51814;SDS011;37874;53.158;6.766;2022-08-19T10:28:57;2.40;;;1.92;;
51814;SDS011;37874;53.158;6.766;2022-08-19T10:31:27;2.53;;;2.22;;
51814;SDS011;37874;53.158;6.766;2022-08-19T10:33:55;2.25;;;1.85;;
51814;SDS011;37874;53.158;6.766;2022-08-19T10:36:29;2.55;;;2.08;;
51814;SDS011;37874;53.158;6.766;2022-08-19T10:39:02;2.95;;;2.40;;
51814;SDS011;37874;53.158;6.766;2022-08-19T10:41:31;2.78;;;2.25;;
51814;SDS011;37874;53.158;6.766;2022-08-19T10:44:01;2.55;;;2.20;;
51814;SDS011;37874;53.158;6.766;2022-08-19T10:46:32;3.45;;;2.38;;
51814;SDS011;37874;53.158;6.766;2022-08-19T10:49:00;2.97;;;2.38;;
51814;SDS011;37874;53.158;6.766;2022-08-19T10:51:27;2.92;;;2.35;;
51814;SDS011;37874;53.158;6.766;2022-08-19T10:54:12;2.97;;;2.25;;
51814;SDS011;37874;53.158;6.766;2022-08-19T10:56:37;3.05;;;2.65;;
51814;SDS011;37874;53.158;6.766;2022-08-19T10:59:20;3.40;;;2.67;;
51814;SDS011;37874;53.158;6.766;2022-08-19T11:01:52;3.00;;;2.70;;
51814;SDS011;37874;53.158;6.766;2022-08-19T11:04:19;2.78;;;2.33;;
51814;SDS011;37874;53.158;6.766;2022-08-19T11:06:46;3.28;;;2.97;;
51814;SDS011;37874;53.158;6.766;2022-08-19T11:09:30;2.80;;;2.50;;
51814;SDS011;37874;53.158;6.766;2022-08-19T11:11:56;2.63;;;2.42;;
51814;SDS011;37874;53.158;6.766;2022-08-19T11:14:22;3.15;;;2.80;;
51814;SDS011;37874;53.158;6.766;2022-08-19T11:16:49;3.90;;;3.42;;
51814;SDS011;37874;53.158;6.766;2022-08-19T11:19:17;3.55;;;2.95;;
51814;SDS011;37874;53.158;6.766;2022-08-19T11:21:45;3.33;;;2.92;;
51814;SDS011;37874;53.158;6.766;2022-08-19T11:24:16;3.83;;;3.20;;
51814;SDS011;37874;53.158;6.766;2022-08-19T11:26:45;3.78;;;3.08;;
51814;SDS011;37874;53.158;6.766;2022-08-19T11:29:12;3.88;;;3.33;;
51814;SDS011;37874;53.158;6.766;2022-08-19T11:31:39;4.03;;;3.00;;
51814;SDS011;37874;53.158;6.766;2022-08-19T11:34:08;3.47;;;2.80;;
51814;SDS011;37874;53.158;6.766;2022-08-19T11:36:37;3.97;;;3.47;;
51814;SDS011;37874;53.158;6.766;2022-08-19T11:39:05;7.68;;;3.20;;
51814;SDS011;37874;53.158;6.766;2022-08-19T11:41:31;3.72;;;3.30;;
51814;SDS011;37874;53.158;6.766;2022-08-19T11:43:57;3.53;;;3.22;;
51814;SDS011;37874;53.158;6.766;2022-08-19T11:46:23;4.07;;;3.30;;
51814;SDS011;37874;53.158;6.766;2022-08-19T11:48:50;4.72;;;3.60;;
51814;SDS011;37874;53.158;6.766;2022-08-19T11:51:18;5.30;;;4.05;;
51814;SDS011;37874;53.158;6.766;2022-08-19T11:53:46;4.30;;;3.90;;
51814;SDS011;37874;53.158;6.766;2022-08-19T11:56:12;4.30;;;3.85;;
51814;SDS011;37874;53.158;6.766;2022-08-19T11:58:38;4.47;;;3.60;;
51814;SDS011;37874;53.158;6.766;2022-08-19T12:01:10;4.97;;;3.95;;
51814;SDS011;37874;53.158;6.766;2022-08-19T12:03:38;5.78;;;4.40;;
51814;SDS011;37874;53.158;6.766;2022-08-19T12:06:05;4.50;;;3.80;;
51814;SDS011;37874;53.158;6.766;2022-08-19T12:08:35;4.65;;;4.15;;
51814;SDS011;37874;53.158;6.766;2022-08-19T12:11:01;4.97;;;4.47;;
51814;SDS011;37874;53.158;6.766;2022-08-19T12:13:30;5.45;;;4.45;;
51814;SDS011;37874;53.158;6.766;2022-08-19T12:15:56;6.10;;;4.30;;
51814;SDS011;37874;53.158;6.766;2022-08-19T12:18:22;4.25;;;3.85;;
51814;SDS011;37874;53.158;6.766;2022-08-19T12:20:50;4.85;;;3.78;;
51814;SDS011;37874;53.158;6.766;2022-08-19T12:23:17;5.25;;;3.30;;
51814;SDS011;37874;53.158;6.766;2022-08-19T12:25:43;4.15;;;3.45;;
51814;SDS011;37874;53.158;6.766;2022-08-19T12:28:21;4.93;;;4.50;;
51814;SDS011;37874;53.158;6.766;2022-08-19T12:30:48;5.03;;;4.40;;
51814;SDS011;37874;53.158;6.766;2022-08-19T12:33:18;5.03;;;4.20;;
51814;SDS011;37874;53.158;6.766;2022-08-19T12:35:48;4.05;;;3.60;;
51814;SDS011;37874;53.158;6.766;2022-08-19T12:38:14;4.47;;;3.92;;
51814;SDS011;37874;53.158;6.766;2022-08-19T12:40:40;4.70;;;3.72;;
51814;SDS011;37874;53.158;6.766;2022-08-19T12:43:08;4.07;;;3.60;;
51814;SDS011;37874;53.158;6.766;2022-08-19T12:45:36;4.90;;;4.40;;
51814;SDS011;37874;53.158;6.766;2022-08-19T12:48:03;4.88;;;4.32;;
51814;SDS011;37874;53.158;6.766;2022-08-19T12:50:29;5.38;;;4.68;;
51814;SDS011;37874;53.158;6.766;2022-08-19T12:52:55;5.20;;;4.70;;
51814;SDS011;37874;53.158;6.766;2022-08-19T12:55:22;5.15;;;4.57;;
51814;SDS011;37874;53.158;6.766;2022-08-19T12:57:47;5.10;;;4.60;;
51814;SDS011;37874;53.158;6.766;2022-08-19T13:00:17;5.18;;;4.68;;
51814;SDS011;37874;53.158;6.766;2022-08-19T13:02:46;5.30;;;3.95;;
51814;SDS011;37874;53.158;6.766;2022-08-19T13:05:16;4.82;;;4.40;;
51814;SDS011;37874;53.158;6.766;2022-08-19T13:07:47;4.68;;;4.25;;
51814;SDS011;37874;53.158;6.766;2022-08-19T13:10:15;4.50;;;4.10;;
51814;SDS011;37874;53.158;6.766;2022-08-19T13:12:43;5.32;;;4.60;;
51814;SDS011;37874;53.158;6.766;2022-08-19T13:15:11;5.30;;;4.80;;
51814;SDS011;37874;53.158;6.766;2022-08-19T13:17:38;5.30;;;4.13;;
51814;SDS011;37874;53.158;6.766;2022-08-19T13:20:04;4.70;;;4.20;;
51814;SDS011;37874;53.158;6.766;2022-08-19T13:22:32;5.10;;;4.60;;
51814;SDS011;37874;53.158;6.766;2022-08-19T13:24:58;5.18;;;4.68;;
51814;SDS011;37874;53.158;6.766;2022-08-19T13:27:24;6.03;;;4.65;;
51814;SDS011;37874;53.158;6.766;2022-08-19T13:29:49;4.63;;;4.03;;
51814;SDS011;37874;53.158;6.766;2022-08-19T13:32:33;5.03;;;4.50;;
51814;SDS011;37874;53.158;6.766;2022-08-19T13:35:18;4.45;;;4.03;;
51814;SDS011;37874;53.158;6.766;2022-08-19T13:37:44;4.93;;;4.05;;
51814;SDS011;37874;53.158;6.766;2022-08-19T13:40:12;5.63;;;4.00;;
51814;SDS011;37874;53.158;6.766;2022-08-19T13:42:44;4.65;;;4.20;;
51814;SDS011;37874;53.158;6.766;2022-08-19T13:45:12;5.07;;;4.57;;
51814;SDS011;37874;53.158;6.766;2022-08-19T13:47:40;4.70;;;3.85;;
51814;SDS011;37874;53.158;6.766;2022-08-19T13:50:12;3.88;;;3.35;;
51814;SDS011;37874;53.158;6.766;2022-08-19T13:52:40;4.05;;;3.65;;
51814;SDS011;37874;53.158;6.766;2022-08-19T13:55:06;4.25;;;3.58;;
51814;SDS011;37874;53.158;6.766;2022-08-19T13:57:33;4.72;;;3.88;;
51814;SDS011;37874;53.158;6.766;2022-08-19T14:00:00;4.80;;;4.30;;
51814;SDS011;37874;53.158;6.766;2022-08-19T14:02:26;5.07;;;4.30;;
51814;SDS011;37874;53.158;6.766;2022-08-19T14:04:52;5.53;;;4.80;;
51814;SDS011;37874;53.158;6.766;2022-08-19T14:07:18;5.60;;;5.10;;
51814;SDS011;37874;53.158;6.766;2022-08-19T14:09:44;5.07;;;4.57;;
51814;SDS011;37874;53.158;6.766;2022-08-19T14:12:10;5.07;;;4.57;;
51814;SDS011;37874;53.158;6.766;2022-08-19T14:14:36;5.47;;;4.97;;
51814;SDS011;37874;53.158;6.766;2022-08-19T14:17:05;4.43;;;4.03;;
51814;SDS011;37874;53.158;6.766;2022-08-19T14:19:32;4.10;;;3.70;;
51814;SDS011;37874;53.158;6.766;2022-08-19T14:21:58;4.60;;;4.07;;
51814;SDS011;37874;53.158;6.766;2022-08-19T14:24:23;4.32;;;3.92;;
51814;SDS011;37874;53.158;6.766;2022-08-19T14:26:49;4.35;;;3.80;;
51814;SDS011;37874;53.158;6.766;2022-08-19T14:29:15;3.95;;;3.30;;
51814;SDS011;37874;53.158;6.766;2022-08-19T14:31:41;3.50;;;3.20;;
51814;SDS011;37874;53.158;6.766;2022-08-19T14:34:08;3.70;;;3.13;;
51814;SDS011;37874;53.158;6.766;2022-08-19T14:36:35;3.30;;;2.90;;
51814;SDS011;37874;53.158;6.766;2022-08-19T14:39:02;3.97;;;3.10;;
51814;SDS011;37874;53.158;6.766;2022-08-19T14:41:28;3.35;;;2.83;;
51814;SDS011;37874;53.158;6.766;2022-08-19T14:43:55;3.40;;;2.83;;
51814;SDS011;37874;53.158;6.766;2022-08-19T14:46:23;3.10;;;2.80;;
51814;SDS011;37874;53.158;6.766;2022-08-19T14:48:51;3.00;;;2.63;;
51814;SDS011;37874;53.158;6.766;2022-08-19T14:51:17;3.10;;;2.75;;
51814;SDS011;37874;53.158;6.766;2022-08-19T14:53:44;4.32;;;2.80;;
51814;SDS011;37874;53.158;6.766;2022-08-19T14:56:11;3.08;;;2.78;;
51814;SDS011;37874;53.158;6.766;2022-08-19T14:58:41;3.25;;;2.95;;
51814;SDS011;37874;53.158;6.766;2022-08-19T15:01:08;3.72;;;3.00;;
51814;SDS011;37874;53.158;6.766;2022-08-19T15:03:35;3.75;;;3.08;;
51814;SDS011;37874;53.158;6.766;2022-08-19T15:06:02;3.50;;;3.15;;
51814;SDS011;37874;53.158;6.766;2022-08-19T15:08:30;4.50;;;2.78;;
51814;SDS011;37874;53.158;6.766;2022-08-19T15:10:57;3.08;;;2.75;;
51814;SDS011;37874;53.158;6.766;2022-08-19T15:13:24;3.00;;;2.63;;
51814;SDS011;37874;53.158;6.766;2022-08-19T15:15:51;3.45;;;2.85;;
51814;SDS011;37874;53.158;6.766;2022-08-19T15:18:17;3.67;;;3.20;;
51814;SDS011;37874;53.158;6.766;2022-08-19T15:20:45;3.40;;;2.95;;
51814;SDS011;37874;53.158;6.766;2022-08-19T15:23:11;3.60;;;3.30;;
51814;SDS011;37874;53.158;6.766;2022-08-19T15:25:39;4.00;;;3.00;;
51814;SDS011;37874;53.158;6.766;2022-08-19T15:28:06;3.70;;;3.30;;
51814;SDS011;37874;53.158;6.766;2022-08-19T15:30:36;4.20;;;3.47;;
51814;SDS011;37874;53.158;6.766;2022-08-19T15:33:03;3.45;;;2.97;;